sensor_id;sensor_type;location;lat;lon;timestamp;P1;durP1;ratioP1;P2;durP2;ratioP2
28724;SDS011;43472;48.980;9.646;2023-02-21T00:02:37;12.80;;;4.20;;
28724;SDS011;43472;48.980;9.646;2023-02-21T00:07:58;10.90;;;4.50;;
28724;SDS011;43472;48.980;9.646;2023-02-21T00:13:19;12.55;;;4.80;;
28724;SDS011;43472;48.980;9.646;2023-02-21T00:18:39;11.43;;;4.65;;
28724;SDS011;43472;48.980;9.646;2023-02-21T00:24:00;11.07;;;4.85;;
28724;SDS011;43472;48.980;9.646;2023-02-21T00:29:21;9.57;;;4.80;;
28724;SDS011;43472;48.980;9.646;2023-02-21T00:34:42;6.72;;;3.67;;
28724;SDS011;43472;48.980;9.646;2023-02-21T00:40:02;6.32;;;3.33;;
28724;SDS011;43472;48.980;9.646;2023-02-21T00:45:24;10.63;;;3.73;;
28724;SDS011;43472;48.980;9.646;2023-02-21T00:50:44;5.88;;;3.13;;
28724;SDS011;43472;48.980;9.646;2023-02-21T00:56:05;7.85;;;3.15;;
28724;SDS011;43472;48.980;9.646;2023-02-21T01:01:25;9.63;;;4.70;;
28724;SDS011;43472;48.980;9.646;2023-02-21T01:06:45;8.75;;;4.13;;
28724;SDS011;43472;48.980;9.646;2023-02-21T01:12:10;6.13;;;3.13;;
28724;SDS011;43472;48.980;9.646;2023-02-21T01:17:30;7.30;;;3.20;;
28724;SDS011;43472;48.980;9.646;2023-02-21T01:22:50;10.63;;;3.25;;
28724;SDS011;43472;48.980;9.646;2023-02-21T01:28:11;8.32;;;3.45;;
28724;SDS011;43472;48.980;9.646;2023-02-21T01:33:38;9.15;;;3.00;;
28724;SDS011;43472;48.980;9.646;2023-02-21T01:38:59;9.85;;;3.03;;
28724;SDS011;43472;48.980;9.646;2023-02-21T01:49:59;4.82;;;2.85;;
28724;SDS011;43472;48.980;9.646;2023-02-21T01:55:21;4.28;;;2.67;;
28724;SDS011;43472;48.980;9.646;2023-02-21T02:00:42;5.78;;;3.03;;
28724;SDS011;43472;48.980;9.646;2023-02-21T02:06:07;6.77;;;2.77;;
28724;SDS011;43472;48.980;9.646;2023-02-21T02:11:42;8.32;;;2.97;;
28724;SDS011;43472;48.980;9.646;2023-02-21T02:27:40;9.20;;;3.00;;
28724;SDS011;43472;48.980;9.646;2023-02-21T02:33:05;7.70;;;2.80;;
28724;SDS011;43472;48.980;9.646;2023-02-21T02:48:54;7.18;;;2.97;;
28724;SDS011;43472;48.980;9.646;2023-02-21T02:53:58;5.47;;;3.17;;
28724;SDS011;43472;48.980;9.646;2023-02-21T02:59:02;5.82;;;3.00;;
28724;SDS011;43472;48.980;9.646;2023-02-21T03:14:56;6.22;;;3.08;;
28724;SDS011;43472;48.980;9.646;2023-02-21T03:20:10;4.53;;;2.65;;
28724;SDS011;43472;48.980;9.646;2023-02-21T03:25:14;7.68;;;2.70;;
28724;SDS011;43472;48.980;9.646;2023-02-21T03:30:17;4.70;;;2.65;;
28724;SDS011;43472;48.980;9.646;2023-02-21T03:35:20;7.55;;;2.60;;
28724;SDS011;43472;48.980;9.646;2023-02-21T03:40:24;3.53;;;2.47;;
28724;SDS011;43472;48.980;9.646;2023-02-21T03:45:29;5.75;;;2.60;;
28724;SDS011;43472;48.980;9.646;2023-02-21T03:50:30;3.47;;;2.25;;
28724;SDS011;43472;48.980;9.646;2023-02-21T03:55:32;3.92;;;2.30;;
28724;SDS011;43472;48.980;9.646;2023-02-21T04:00:34;6.40;;;2.80;;
28724;SDS011;43472;48.980;9.646;2023-02-21T04:05:36;6.75;;;2.83;;
28724;SDS011;43472;48.980;9.646;2023-02-21T04:10:37;6.25;;;2.58;;
28724;SDS011;43472;48.980;9.646;2023-02-21T04:15:52;4.50;;;2.83;;
28724;SDS011;43472;48.980;9.646;2023-02-21T04:20:54;5.57;;;2.95;;
28724;SDS011;43472;48.980;9.646;2023-02-21T04:25:55;7.22;;;2.63;;
28724;SDS011;43472;48.980;9.646;2023-02-21T04:30:57;4.65;;;3.00;;
28724;SDS011;43472;48.980;9.646;2023-02-21T04:35:59;7.38;;;2.53;;
28724;SDS011;43472;48.980;9.646;2023-02-21T04:41:01;4.53;;;2.80;;
28724;SDS011;43472;48.980;9.646;2023-02-21T04:46:03;6.30;;;3.47;;
28724;SDS011;43472;48.980;9.646;2023-02-21T04:51:05;7.07;;;3.30;;
28724;SDS011;43472;48.980;9.646;2023-02-21T04:56:19;7.78;;;3.47;;
28724;SDS011;43472;48.980;9.646;2023-02-21T05:01:27;5.15;;;2.80;;
28724;SDS011;43472;48.980;9.646;2023-02-21T05:06:31;7.15;;;4.03;;
28724;SDS011;43472;48.980;9.646;2023-02-21T05:11:33;9.32;;;3.92;;
28724;SDS011;43472;48.980;9.646;2023-02-21T05:16:35;9.98;;;3.75;;
28724;SDS011;43472;48.980;9.646;2023-02-21T05:21:37;9.82;;;4.32;;
28724;SDS011;43472;48.980;9.646;2023-02-21T05:26:39;10.30;;;4.90;;
28724;SDS011;43472;48.980;9.646;2023-02-21T05:31:41;15.65;;;8.90;;
28724;SDS011;43472;48.980;9.646;2023-02-21T05:36:42;23.63;;;11.05;;
28724;SDS011;43472;48.980;9.646;2023-02-21T05:41:45;15.75;;;6.55;;
28724;SDS011;43472;48.980;9.646;2023-02-21T05:46:48;4.82;;;3.05;;
28724;SDS011;43472;48.980;9.646;2023-02-21T05:51:50;4.10;;;3.03;;
28724;SDS011;43472;48.980;9.646;2023-02-21T05:56:52;13.38;;;7.28;;
28724;SDS011;43472;48.980;9.646;2023-02-21T06:01:53;15.18;;;6.40;;
28724;SDS011;43472;48.980;9.646;2023-02-21T06:06:57;8.57;;;5.60;;
28724;SDS011;43472;48.980;9.646;2023-02-21T06:11:58;10.70;;;4.07;;
28724;SDS011;43472;48.980;9.646;2023-02-21T06:17:00;5.78;;;3.42;;
28724;SDS011;43472;48.980;9.646;2023-02-21T06:22:03;12.85;;;3.80;;
28724;SDS011;43472;48.980;9.646;2023-02-21T06:27:04;17.67;;;6.47;;
28724;SDS011;43472;48.980;9.646;2023-02-21T06:32:06;20.88;;;8.68;;
28724;SDS011;43472;48.980;9.646;2023-02-21T06:37:08;11.27;;;5.43;;
28724;SDS011;43472;48.980;9.646;2023-02-21T06:42:14;13.18;;;6.53;;
28724;SDS011;43472;48.980;9.646;2023-02-21T06:47:17;17.92;;;8.02;;
28724;SDS011;43472;48.980;9.646;2023-02-21T06:52:19;22.35;;;8.55;;
28724;SDS011;43472;48.980;9.646;2023-02-21T06:57:21;15.35;;;6.80;;
28724;SDS011;43472;48.980;9.646;2023-02-21T07:02:23;15.63;;;6.90;;
28724;SDS011;43472;48.980;9.646;2023-02-21T07:07:25;15.55;;;6.78;;
28724;SDS011;43472;48.980;9.646;2023-02-21T07:12:27;16.83;;;7.90;;
28724;SDS011;43472;48.980;9.646;2023-02-21T07:17:28;18.20;;;7.75;;
28724;SDS011;43472;48.980;9.646;2023-02-21T07:22:30;16.10;;;7.95;;
28724;SDS011;43472;48.980;9.646;2023-02-21T07:27:32;13.20;;;8.15;;
28724;SDS011;43472;48.980;9.646;2023-02-21T07:32:34;19.20;;;9.63;;
28724;SDS011;43472;48.980;9.646;2023-02-21T07:37:36;15.13;;;8.60;;
28724;SDS011;43472;48.980;9.646;2023-02-21T07:42:40;14.30;;;8.65;;
28724;SDS011;43472;48.980;9.646;2023-02-21T07:47:45;29.38;;;14.15;;
28724;SDS011;43472;48.980;9.646;2023-02-21T07:52:48;18.45;;;9.82;;
28724;SDS011;43472;48.980;9.646;2023-02-21T07:57:50;18.50;;;8.15;;
28724;SDS011;43472;48.980;9.646;2023-02-21T08:02:52;12.32;;;6.70;;
28724;SDS011;43472;48.980;9.646;2023-02-21T08:07:54;13.32;;;6.90;;
28724;SDS011;43472;48.980;9.646;2023-02-21T08:12:56;16.67;;;8.07;;
28724;SDS011;43472;48.980;9.646;2023-02-21T08:17:58;17.27;;;6.53;;
28724;SDS011;43472;48.980;9.646;2023-02-21T08:23:00;22.33;;;7.82;;
28724;SDS011;43472;48.980;9.646;2023-02-21T08:28:02;13.07;;;6.75;;
28724;SDS011;43472;48.980;9.646;2023-02-21T08:33:04;14.05;;;6.00;;
28724;SDS011;43472;48.980;9.646;2023-02-21T08:38:06;10.57;;;6.40;;
28724;SDS011;43472;48.980;9.646;2023-02-21T08:43:08;12.48;;;4.88;;
28724;SDS011;43472;48.980;9.646;2023-02-21T08:48:10;15.63;;;5.30;;
28724;SDS011;43472;48.980;9.646;2023-02-21T08:53:12;15.80;;;7.35;;
28724;SDS011;43472;48.980;9.646;2023-02-21T08:58:15;11.98;;;8.15;;
28724;SDS011;43472;48.980;9.646;2023-02-21T09:03:17;13.63;;;8.25;;
28724;SDS011;43472;48.980;9.646;2023-02-21T09:08:19;11.95;;;7.60;;
28724;SDS011;43472;48.980;9.646;2023-02-21T09:13:22;10.35;;;4.50;;
28724;SDS011;43472;48.980;9.646;2023-02-21T09:18:24;15.27;;;5.32;;
28724;SDS011;43472;48.980;9.646;2023-02-21T09:23:28;6.30;;;3.70;;
28724;SDS011;43472;48.980;9.646;2023-02-21T09:28:33;10.98;;;4.15;;
28724;SDS011;43472;48.980;9.646;2023-02-21T09:33:38;9.43;;;3.95;;
28724;SDS011;43472;48.980;9.646;2023-02-21T09:38:41;10.45;;;5.07;;
28724;SDS011;43472;48.980;9.646;2023-02-21T09:43:44;13.00;;;4.95;;
28724;SDS011;43472;48.980;9.646;2023-02-21T09:48:48;14.68;;;4.78;;
28724;SDS011;43472;48.980;9.646;2023-02-21T09:53:53;10.25;;;3.90;;
28724;SDS011;43472;48.980;9.646;2023-02-21T09:58:59;9.10;;;3.53;;
28724;SDS011;43472;48.980;9.646;2023-02-21T10:09:17;7.43;;;3.90;;
28724;SDS011;43472;48.980;9.646;2023-02-21T10:14:40;9.00;;;4.05;;
28724;SDS011;43472;48.980;9.646;2023-02-21T10:20:07;8.27;;;3.72;;
28724;SDS011;43472;48.980;9.646;2023-02-21T10:25:24;8.25;;;4.22;;
28724;SDS011;43472;48.980;9.646;2023-02-21T10:30:31;7.63;;;2.95;;
28724;SDS011;43472;48.980;9.646;2023-02-21T10:35:36;8.60;;;3.30;;
28724;SDS011;43472;48.980;9.646;2023-02-21T10:40:39;7.43;;;3.70;;
28724;SDS011;43472;48.980;9.646;2023-02-21T10:45:46;7.28;;;3.65;;
28724;SDS011;43472;48.980;9.646;2023-02-21T10:51:09;8.13;;;3.63;;
28724;SDS011;43472;48.980;9.646;2023-02-21T11:06:31;7.47;;;4.60;;
28724;SDS011;43472;48.980;9.646;2023-02-21T11:11:37;7.57;;;3.65;;
28724;SDS011;43472;48.980;9.646;2023-02-21T11:16:41;10.07;;;3.83;;
28724;SDS011;43472;48.980;9.646;2023-02-21T11:21:44;11.50;;;4.60;;
28724;SDS011;43472;48.980;9.646;2023-02-21T11:26:56;10.13;;;3.78;;
28724;SDS011;43472;48.980;9.646;2023-02-21T11:31:58;6.82;;;3.25;;
28724;SDS011;43472;48.980;9.646;2023-02-21T11:37:11;6.85;;;3.05;;
28724;SDS011;43472;48.980;9.646;2023-02-21T11:42:26;7.95;;;3.97;;
28724;SDS011;43472;48.980;9.646;2023-02-21T11:47:36;7.60;;;3.28;;
28724;SDS011;43472;48.980;9.646;2023-02-21T11:52:51;7.60;;;3.53;;
28724;SDS011;43472;48.980;9.646;2023-02-21T12:24:43;4.88;;;3.00;;
28724;SDS011;43472;48.980;9.646;2023-02-21T12:30:03;4.55;;;2.40;;
28724;SDS011;43472;48.980;9.646;2023-02-21T12:50:57;4.82;;;2.55;;
28724;SDS011;43472;48.980;9.646;2023-02-21T13:01:20;7.13;;;3.35;;
28724;SDS011;43472;48.980;9.646;2023-02-21T13:06:28;4.10;;;2.78;;
28724;SDS011;43472;48.980;9.646;2023-02-21T13:16:43;7.32;;;3.00;;
28724;SDS011;43472;48.980;9.646;2023-02-21T13:21:50;5.50;;;2.95;;
28724;SDS011;43472;48.980;9.646;2023-02-21T13:27:27;6.35;;;2.95;;
28724;SDS011;43472;48.980;9.646;2023-02-21T13:32:50;4.15;;;2.80;;
28724;SDS011;43472;48.980;9.646;2023-02-21T13:37:54;6.20;;;2.70;;
28724;SDS011;43472;48.980;9.646;2023-02-21T13:43:02;4.65;;;2.72;;
28724;SDS011;43472;48.980;9.646;2023-02-21T13:53:19;4.70;;;2.75;;
28724;SDS011;43472;48.980;9.646;2023-02-21T14:03:32;7.78;;;4.00;;
28724;SDS011;43472;48.980;9.646;2023-02-21T14:08:35;3.75;;;2.40;;
28724;SDS011;43472;48.980;9.646;2023-02-21T14:13:51;3.30;;;2.20;;
28724;SDS011;43472;48.980;9.646;2023-02-21T14:19:06;3.70;;;2.22;;
28724;SDS011;43472;48.980;9.646;2023-02-21T14:24:21;4.70;;;2.25;;
28724;SDS011;43472;48.980;9.646;2023-02-21T14:34:38;2.40;;;1.65;;
28724;SDS011;43472;48.980;9.646;2023-02-21T14:39:45;3.67;;;2.10;;
28724;SDS011;43472;48.980;9.646;2023-02-21T14:50:00;4.60;;;1.60;;
28724;SDS011;43472;48.980;9.646;2023-02-21T15:06:12;3.05;;;1.40;;
28724;SDS011;43472;48.980;9.646;2023-02-21T15:11:21;3.15;;;1.17;;
28724;SDS011;43472;48.980;9.646;2023-02-21T15:16:38;3.55;;;1.80;;
28724;SDS011;43472;48.980;9.646;2023-02-21T15:21:47;2.72;;;1.40;;
28724;SDS011;43472;48.980;9.646;2023-02-21T15:26:49;2.53;;;1.30;;
28724;SDS011;43472;48.980;9.646;2023-02-21T15:32:12;5.10;;;1.52;;
28724;SDS011;43472;48.980;9.646;2023-02-21T15:37:16;3.60;;;1.42;;
28724;SDS011;43472;48.980;9.646;2023-02-21T15:42:24;2.78;;;1.23;;
28724;SDS011;43472;48.980;9.646;2023-02-21T15:47:28;2.97;;;1.90;;
28724;SDS011;43472;48.980;9.646;2023-02-21T15:52:37;8.00;;;1.65;;
28724;SDS011;43472;48.980;9.646;2023-02-21T15:57:41;4.55;;;2.00;;
28724;SDS011;43472;48.980;9.646;2023-02-21T16:02:43;6.80;;;2.00;;
28724;SDS011;43472;48.980;9.646;2023-02-21T16:07:44;3.13;;;1.50;;
28724;SDS011;43472;48.980;9.646;2023-02-21T16:12:55;17.58;;;7.22;;
28724;SDS011;43472;48.980;9.646;2023-02-21T16:18:01;13.70;;;4.65;;
28724;SDS011;43472;48.980;9.646;2023-02-21T16:23:21;16.45;;;6.75;;
28724;SDS011;43472;48.980;9.646;2023-02-21T16:28:26;12.25;;;6.47;;
28724;SDS011;43472;48.980;9.646;2023-02-21T16:33:29;44.38;;;19.27;;
28724;SDS011;43472;48.980;9.646;2023-02-21T16:38:32;16.55;;;8.85;;
28724;SDS011;43472;48.980;9.646;2023-02-21T16:43:33;14.80;;;7.68;;
28724;SDS011;43472;48.980;9.646;2023-02-21T16:48:35;8.38;;;4.07;;
28724;SDS011;43472;48.980;9.646;2023-02-21T16:53:37;8.52;;;2.90;;
28724;SDS011;43472;48.980;9.646;2023-02-21T16:58:46;5.68;;;2.60;;
28724;SDS011;43472;48.980;9.646;2023-02-21T17:03:50;16.73;;;7.75;;
28724;SDS011;43472;48.980;9.646;2023-02-21T17:08:54;17.67;;;7.03;;
28724;SDS011;43472;48.980;9.646;2023-02-21T17:13:56;11.95;;;6.55;;
28724;SDS011;43472;48.980;9.646;2023-02-21T17:18:57;9.77;;;4.28;;
28724;SDS011;43472;48.980;9.646;2023-02-21T17:23:59;12.65;;;5.65;;
28724;SDS011;43472;48.980;9.646;2023-02-21T17:29:01;11.52;;;4.70;;
28724;SDS011;43472;48.980;9.646;2023-02-21T17:34:03;9.23;;;3.97;;
28724;SDS011;43472;48.980;9.646;2023-02-21T17:39:05;15.02;;;6.53;;
28724;SDS011;43472;48.980;9.646;2023-02-21T17:44:07;5.88;;;3.30;;
28724;SDS011;43472;48.980;9.646;2023-02-21T17:49:08;8.55;;;4.38;;
28724;SDS011;43472;48.980;9.646;2023-02-21T17:54:10;14.98;;;6.53;;
28724;SDS011;43472;48.980;9.646;2023-02-21T17:59:13;7.47;;;3.25;;
28724;SDS011;43472;48.980;9.646;2023-02-21T18:04:15;77.20;;;31.75;;
28724;SDS011;43472;48.980;9.646;2023-02-21T18:09:17;47.85;;;19.90;;
28724;SDS011;43472;48.980;9.646;2023-02-21T18:14:19;67.35;;;28.90;;
28724;SDS011;43472;48.980;9.646;2023-02-21T18:19:22;35.58;;;14.55;;
28724;SDS011;43472;48.980;9.646;2023-02-21T18:24:24;30.40;;;14.45;;
28724;SDS011;43472;48.980;9.646;2023-02-21T18:29:27;20.85;;;10.75;;
28724;SDS011;43472;48.980;9.646;2023-02-21T18:34:31;17.23;;;7.50;;
28724;SDS011;43472;48.980;9.646;2023-02-21T18:39:33;12.32;;;5.90;;
28724;SDS011;43472;48.980;9.646;2023-02-21T18:44:35;16.48;;;7.65;;
28724;SDS011;43472;48.980;9.646;2023-02-21T18:49:37;21.10;;;9.52;;
28724;SDS011;43472;48.980;9.646;2023-02-21T18:54:46;20.58;;;9.25;;
28724;SDS011;43472;48.980;9.646;2023-02-21T18:59:49;22.70;;;8.32;;
28724;SDS011;43472;48.980;9.646;2023-02-21T19:04:51;19.92;;;8.45;;
28724;SDS011;43472;48.980;9.646;2023-02-21T19:09:53;22.73;;;9.50;;
28724;SDS011;43472;48.980;9.646;2023-02-21T19:14:56;14.93;;;7.00;;
28724;SDS011;43472;48.980;9.646;2023-02-21T19:19:58;18.73;;;10.40;;
28724;SDS011;43472;48.980;9.646;2023-02-21T19:25:00;8.30;;;5.13;;
28724;SDS011;43472;48.980;9.646;2023-02-21T19:30:02;11.70;;;6.13;;
28724;SDS011;43472;48.980;9.646;2023-02-21T19:35:05;11.65;;;4.38;;
28724;SDS011;43472;48.980;9.646;2023-02-21T19:40:08;6.18;;;4.03;;
28724;SDS011;43472;48.980;9.646;2023-02-21T19:45:10;4.45;;;3.42;;
28724;SDS011;43472;48.980;9.646;2023-02-21T19:50:12;11.20;;;3.22;;
28724;SDS011;43472;48.980;9.646;2023-02-21T19:55:14;6.93;;;3.65;;
28724;SDS011;43472;48.980;9.646;2023-02-21T20:00:16;9.20;;;4.15;;
28724;SDS011;43472;48.980;9.646;2023-02-21T20:05:18;8.18;;;4.82;;
28724;SDS011;43472;48.980;9.646;2023-02-21T20:10:20;7.18;;;3.92;;
28724;SDS011;43472;48.980;9.646;2023-02-21T20:15:25;6.28;;;2.95;;
28724;SDS011;43472;48.980;9.646;2023-02-21T20:20:28;19.52;;;6.47;;
28724;SDS011;43472;48.980;9.646;2023-02-21T20:25:30;14.63;;;7.75;;
28724;SDS011;43472;48.980;9.646;2023-02-21T20:30:32;14.20;;;6.32;;
28724;SDS011;43472;48.980;9.646;2023-02-21T20:35:34;15.68;;;8.13;;
28724;SDS011;43472;48.980;9.646;2023-02-21T20:40:35;13.07;;;5.75;;
28724;SDS011;43472;48.980;9.646;2023-02-21T20:45:38;11.45;;;5.03;;
28724;SDS011;43472;48.980;9.646;2023-02-21T20:50:40;19.13;;;9.85;;
28724;SDS011;43472;48.980;9.646;2023-02-21T20:55:41;11.27;;;5.70;;
28724;SDS011;43472;48.980;9.646;2023-02-21T21:00:43;5.93;;;3.30;;
28724;SDS011;43472;48.980;9.646;2023-02-21T21:05:45;9.75;;;4.07;;
28724;SDS011;43472;48.980;9.646;2023-02-21T21:10:48;7.22;;;3.55;;
28724;SDS011;43472;48.980;9.646;2023-02-21T21:15:51;9.00;;;4.28;;
28724;SDS011;43472;48.980;9.646;2023-02-21T21:20:52;6.05;;;4.18;;
28724;SDS011;43472;48.980;9.646;2023-02-21T21:25:55;7.60;;;4.00;;
28724;SDS011;43472;48.980;9.646;2023-02-21T21:30:57;8.02;;;3.70;;
28724;SDS011;43472;48.980;9.646;2023-02-21T21:36:01;9.30;;;3.97;;
28724;SDS011;43472;48.980;9.646;2023-02-21T21:41:03;8.55;;;5.50;;
28724;SDS011;43472;48.980;9.646;2023-02-21T21:46:13;10.10;;;4.88;;
28724;SDS011;43472;48.980;9.646;2023-02-21T21:51:16;8.35;;;5.25;;
28724;SDS011;43472;48.980;9.646;2023-02-21T21:56:21;8.10;;;4.95;;
28724;SDS011;43472;48.980;9.646;2023-02-21T22:01:28;6.47;;;4.55;;
28724;SDS011;43472;48.980;9.646;2023-02-21T22:06:30;6.70;;;4.15;;
28724;SDS011;43472;48.980;9.646;2023-02-21T22:11:32;6.07;;;4.00;;
28724;SDS011;43472;48.980;9.646;2023-02-21T22:16:36;8.13;;;3.95;;
28724;SDS011;43472;48.980;9.646;2023-02-21T22:21:40;7.63;;;3.67;;
28724;SDS011;43472;48.980;9.646;2023-02-21T22:26:44;7.15;;;4.28;;
28724;SDS011;43472;48.980;9.646;2023-02-21T22:31:46;8.73;;;4.47;;
28724;SDS011;43472;48.980;9.646;2023-02-21T22:36:53;7.88;;;4.72;;
28724;SDS011;43472;48.980;9.646;2023-02-21T22:41:57;6.55;;;4.20;;
28724;SDS011;43472;48.980;9.646;2023-02-21T22:46:59;7.78;;;4.68;;
28724;SDS011;43472;48.980;9.646;2023-02-21T22:52:01;8.05;;;4.05;;
28724;SDS011;43472;48.980;9.646;2023-02-21T22:57:04;7.38;;;5.00;;
28724;SDS011;43472;48.980;9.646;2023-02-21T23:02:07;11.05;;;5.10;;
28724;SDS011;43472;48.980;9.646;2023-02-21T23:07:09;14.35;;;8.13;;
28724;SDS011;43472;48.980;9.646;2023-02-21T23:12:11;12.00;;;4.90;;
28724;SDS011;43472;48.980;9.646;2023-02-21T23:17:15;16.00;;;7.22;;
28724;SDS011;43472;48.980;9.646;2023-02-21T23:22:17;11.80;;;6.72;;
28724;SDS011;43472;48.980;9.646;2023-02-21T23:27:20;9.35;;;5.72;;
28724;SDS011;43472;48.980;9.646;2023-02-21T23:32:21;19.52;;;8.95;;
28724;SDS011;43472;48.980;9.646;2023-02-21T23:37:24;8.60;;;5.78;;
28724;SDS011;43472;48.980;9.646;2023-02-21T23:42:26;9.30;;;5.55;;
28724;SDS011;43472;48.980;9.646;2023-02-21T23:47:32;9.13;;;5.78;;
28724;SDS011;43472;48.980;9.646;2023-02-21T23:52:37;11.30;;;5.63;;
28724;SDS011;43472;48.980;9.646;2023-02-21T23:57:42;14.48;;;5.45;;
